West Carrollton, Ohio
Current Conditions -  °F | °C
As of 3:53 PM on Tuesday 25 Nov 2014 (Local Time) from KMGY Reporting Station
Overcast Overcast  
Wind Chill: 33°   Ceiling: 2800
Heat Index: 38°   Visibility: 10mi
Dew Point: 29°   Wind: 6mph
Humidity: 70%   Direction: 300°WNW
Pressure: 30.11"   Gusts: NA
Location:  39.664°N, 84.2415°W
Report Text: KMGY 252053Z AUTO 30005KT 10SM OVC028 03/M02 A3011 RMK AO2 SLP201 T00331017 51009
Loading
Personal Weather Stations






























Interactive Weather Map New forecast layout! Learn more

10-Day Weather Forecast

Advertisements
Track Severe Weather on mobile